createdAt,value
2019-04-03T00:02:19.239Z,11.30
2019-04-03T00:07:48.582Z,11.40
2019-04-03T00:13:18.051Z,11.50
2019-04-03T00:18:48.029Z,11.60
2019-04-03T00:24:17.567Z,11.60
2019-04-03T00:29:46.917Z,11.50
2019-04-03T00:35:16.395Z,11.50
2019-04-03T00:40:46.086Z,11.40
2019-04-03T00:46:15.839Z,11.40
2019-04-03T00:51:45.226Z,11.40
2019-04-03T00:57:14.550Z,11.30
2019-04-03T01:02:44.636Z,11.30
2019-04-03T01:08:14.046Z,11.30
2019-04-03T01:13:45.223Z,11.30
2019-04-03T01:19:14.857Z,11.30
2019-04-03T01:24:44.135Z,11.30
2019-04-03T01:30:14.355Z,11.30
2019-04-03T01:35:43.940Z,11.20
2019-04-03T01:41:13.235Z,11.20
2019-04-03T01:46:42.572Z,11.20
2019-04-03T01:52:13.052Z,11.10
2019-04-03T01:57:42.326Z,11.10
2019-04-03T02:03:13.053Z,11.20
2019-04-03T02:08:44.368Z,11.20
2019-04-03T02:14:13.524Z,11.20
2019-04-03T02:19:42.869Z,11.20
2019-04-03T02:25:12.325Z,11.20
2019-04-03T02:30:45.339Z,11.10
2019-04-03T02:36:13.894Z,11.10
2019-04-03T02:41:43.215Z,11.10
2019-04-03T02:47:12.774Z,11.10
2019-04-03T02:52:42.213Z,11.00
2019-04-03T02:58:11.623Z,11.00
2019-04-03T03:03:42.177Z,10.90
2019-04-03T03:09:13.596Z,10.90
2019-04-03T03:14:43.179Z,10.90
2019-04-03T03:20:13.426Z,10.90
2019-04-03T03:25:43.760Z,10.90
2019-04-03T03:31:16.264Z,10.80
2019-04-03T03:36:46.945Z,10.70
2019-04-03T03:42:16.908Z,10.70
2019-04-03T03:47:46.875Z,10.60
2019-04-03T03:53:16.511Z,10.50
2019-04-03T03:58:46.754Z,10.30
2019-04-03T04:04:16.262Z,10.20
2019-04-03T04:09:50.052Z,10.00
2019-04-03T04:15:17.348Z,9.90
2019-04-03T04:20:48.005Z,9.80
2019-04-03T04:26:18.857Z,9.60
2019-04-03T04:31:49.381Z,9.50
2019-04-03T04:37:19.023Z,9.40
2019-04-03T04:42:48.556Z,9.30
2019-04-03T04:48:20.345Z,9.20
2019-04-03T04:53:49.111Z,9.20
2019-04-03T04:59:18.500Z,9.20
2019-04-03T05:04:48.102Z,9.20
2019-04-03T05:10:18.082Z,9.20
2019-04-03T05:15:47.576Z,9.20
2019-04-03T05:21:17.274Z,9.20
2019-04-03T05:26:46.632Z,9.10
2019-04-03T05:32:16.017Z,9.20
2019-04-03T05:37:51.549Z,9.20
2019-04-03T05:43:21.421Z,9.20
2019-04-03T05:48:51.474Z,9.20
2019-04-03T05:54:21.104Z,9.30
2019-04-03T05:59:59.802Z,9.40
2019-04-03T06:05:22.247Z,9.50
2019-04-03T06:10:51.883Z,9.60
2019-04-03T06:16:23.426Z,9.80
2019-04-03T06:21:52.651Z,10.00
2019-04-03T06:27:22.147Z,10.20
2019-04-03T06:32:54.373Z,10.50
2019-04-03T06:38:24.547Z,10.70
2019-04-03T06:43:54.669Z,10.80
2019-04-03T06:49:24.541Z,11.00
2019-04-03T06:54:54.253Z,11.10
2019-04-03T07:00:24.059Z,11.20
2019-04-03T07:05:53.608Z,11.40
2019-04-03T07:11:24.198Z,11.50
2019-04-03T07:16:54.110Z,11.70
2019-04-03T07:22:23.752Z,11.90
2019-04-03T07:27:53.947Z,12.20
2019-04-03T07:33:23.428Z,12.50
2019-04-03T07:38:53.349Z,12.90
2019-04-03T07:44:23.245Z,13.10
2019-04-03T07:49:52.775Z,13.40
2019-04-03T07:55:24.215Z,13.60
2019-04-03T08:00:53.376Z,13.60
2019-04-03T08:06:23.154Z,13.80
2019-04-03T08:11:52.554Z,14.00
2019-04-03T08:17:22.220Z,14.30
2019-04-03T08:22:51.731Z,14.50
2019-04-03T08:28:21.291Z,14.70
2019-04-03T08:33:50.789Z,14.80
2019-04-03T08:39:20.334Z,15.00
2019-04-03T08:44:49.722Z,15.20
2019-04-03T08:50:19.531Z,15.40
2019-04-03T08:55:49.055Z,15.50
2019-04-03T09:01:18.509Z,15.60
2019-04-03T09:06:47.912Z,15.60
2019-04-03T09:12:17.252Z,15.80
2019-04-03T09:17:46.888Z,16.10
2019-04-03T09:23:16.428Z,16.30
2019-04-03T09:28:45.995Z,16.20
2019-04-03T09:34:15.593Z,16.50
2019-04-03T09:39:45.959Z,16.90
2019-04-03T09:45:16.098Z,17.30
2019-04-03T09:50:47.174Z,17.40
2019-04-03T09:56:16.803Z,17.50
2019-04-03T10:01:47.924Z,17.80
2019-04-03T10:07:17.837Z,18.00
2019-04-03T10:12:48.737Z,18.30
2019-04-03T10:18:21.731Z,18.50
2019-04-03T10:23:49.878Z,18.50
2019-04-03T10:29:19.661Z,18.50
2019-04-03T10:34:48.996Z,18.70
2019-04-03T10:40:18.851Z,18.80
2019-04-03T10:45:48.311Z,19.00
2019-04-03T10:51:17.751Z,19.00
2019-04-03T10:56:47.679Z,19.40
2019-04-03T11:02:17.385Z,19.50
2019-04-03T11:07:46.994Z,19.90
2019-04-03T11:13:16.594Z,20.20
2019-04-03T11:18:58.044Z,20.60
2019-04-03T11:24:17.216Z,20.80
2019-04-03T11:29:48.424Z,20.90
2019-04-03T11:35:21.753Z,21.10
2019-04-03T11:40:50.828Z,21.20
2019-04-03T11:46:20.706Z,21.30
2019-04-03T11:51:50.249Z,21.60
2019-04-03T11:57:19.683Z,21.80
2019-04-03T12:02:49.037Z,21.90
2019-04-03T12:08:19.676Z,22.00
2019-04-03T12:13:49.416Z,21.70
2019-04-03T12:19:18.822Z,21.50
2019-04-03T12:24:48.567Z,21.40
2019-04-03T12:30:19.600Z,21.30
2019-04-03T12:35:49.483Z,21.50
2019-04-03T12:41:18.917Z,21.80
2019-04-03T12:46:50.054Z,22.10
2019-04-03T12:52:19.548Z,21.90
2019-04-03T12:57:49.481Z,21.90
2019-04-03T13:03:19.456Z,21.70
2019-04-03T13:08:49.467Z,21.70
2019-04-03T13:14:25.250Z,21.90
2019-04-03T13:19:50.305Z,22.70
2019-04-03T13:25:21.422Z,23.60
2019-04-03T13:30:50.855Z,23.70
2019-04-03T13:36:23.516Z,23.60
2019-04-03T13:41:51.832Z,23.10
2019-04-03T13:47:21.590Z,23.30
2019-04-03T13:52:51.379Z,23.30
2019-04-03T13:58:21.660Z,23.00
2019-04-03T14:03:52.170Z,22.80
2019-04-03T14:09:21.777Z,22.50
2019-04-03T14:14:51.303Z,22.20
2019-04-03T14:20:24.213Z,22.20
2019-04-03T14:26:03.986Z,21.70
2019-04-03T14:31:34.737Z,21.20
2019-04-03T14:36:57.492Z,20.90
2019-04-03T14:42:27.411Z,20.40
2019-04-03T14:47:57.446Z,20.10
2019-04-03T14:53:26.915Z,19.80
2019-04-03T14:58:58.559Z,19.60
2019-04-03T15:04:27.822Z,19.30
2019-04-03T15:09:59.510Z,19.10
2019-04-03T15:15:28.837Z,18.90
2019-04-03T15:20:58.484Z,18.70
2019-04-03T15:26:28.143Z,18.50
2019-04-03T15:31:58.089Z,18.40
2019-04-03T15:37:27.686Z,18.40
2019-04-03T15:42:57.309Z,18.30
2019-04-03T15:48:27.169Z,18.20
2019-04-03T15:53:59.213Z,18.10
2019-04-03T15:59:33.421Z,18.00
2019-04-03T16:05:03.095Z,17.90
2019-04-03T16:10:34.988Z,17.70
2019-04-03T16:16:05.124Z,17.60
2019-04-03T16:21:34.632Z,17.50
2019-04-03T16:27:04.044Z,17.40
2019-04-03T16:32:33.706Z,17.20
2019-04-03T16:38:03.880Z,17.10
2019-04-03T16:43:33.300Z,17.00
2019-04-03T16:49:03.197Z,16.90
2019-04-03T16:54:34.367Z,16.70
2019-04-03T17:00:08.425Z,16.60
2019-04-03T17:05:41.492Z,16.40
2019-04-03T17:11:12.683Z,16.30
2019-04-03T17:16:42.432Z,16.20
2019-04-03T17:22:12.101Z,16.10
2019-04-03T17:27:53.573Z,15.90
2019-04-03T17:33:14.973Z,15.80
2019-04-03T17:38:47.570Z,15.70
2019-04-03T17:44:17.296Z,15.60
2019-04-03T17:49:46.722Z,15.40
2019-04-03T17:55:16.659Z,15.30
2019-04-03T18:00:46.166Z,15.20
2019-04-03T18:06:18.340Z,15.10
2019-04-03T18:11:47.626Z,15.00
2019-04-03T18:17:19.269Z,14.90
2019-04-03T18:22:50.268Z,14.80
2019-04-03T18:28:21.118Z,14.70
2019-04-03T18:33:52.458Z,14.60
2019-04-03T18:39:23.234Z,14.50
2019-04-03T18:44:52.803Z,14.40
2019-04-03T18:50:22.259Z,14.30
2019-04-03T18:55:51.742Z,14.10
2019-04-03T19:01:21.571Z,14.00
2019-04-03T19:06:52.110Z,14.00
2019-04-03T19:12:21.607Z,13.90
2019-04-03T19:17:59.912Z,13.80
2019-04-03T19:23:22.465Z,13.70
2019-04-03T19:28:52.184Z,13.60
2019-04-03T19:34:21.622Z,13.60
2019-04-03T19:39:51.073Z,13.50
2019-04-03T19:45:21.575Z,13.50
2019-04-03T19:50:51.441Z,13.50
2019-04-03T20:02:19.744Z,13.40
2019-04-03T20:07:51.045Z,13.30
2019-04-03T20:13:20.504Z,13.30
2019-04-03T20:18:51.139Z,13.10
2019-04-03T20:24:24.979Z,12.30
2019-04-03T20:29:53.275Z,11.10
2019-04-03T20:35:23.719Z,10.20
2019-04-03T20:40:54.474Z,9.60
2019-04-03T20:46:25.613Z,9.00
2019-04-03T20:51:57.961Z,8.60
2019-04-03T20:57:31.072Z,8.10
2019-04-03T21:03:01.382Z,7.70
2019-04-03T21:08:32.928Z,7.40
2019-04-03T21:14:05.423Z,7.10
2019-04-03T21:19:34.936Z,7.00
2019-04-03T21:25:06.123Z,6.80
2019-04-03T21:30:35.886Z,6.70
2019-04-03T21:36:07.052Z,6.70
2019-04-03T21:41:36.453Z,6.70
2019-04-03T21:47:06.075Z,6.70
2019-04-03T21:52:35.606Z,6.70
2019-04-03T21:58:04.991Z,6.60
2019-04-03T22:03:34.752Z,6.40
2019-04-03T22:09:08.392Z,6.40
2019-04-03T22:14:37.796Z,6.30
2019-04-03T22:20:12.041Z,6.20
2019-04-03T22:25:41.438Z,6.20
2019-04-03T22:31:10.887Z,6.20
2019-04-03T22:36:40.292Z,6.20
2019-04-03T22:42:09.710Z,6.10
2019-04-03T22:47:39.034Z,6.00
2019-04-03T22:53:10.550Z,6.00
2019-04-03T22:58:39.803Z,5.90
2019-04-03T23:04:09.143Z,5.80
2019-04-03T23:09:38.459Z,5.70
2019-04-03T23:15:09.723Z,5.60
2019-04-03T23:20:39.121Z,5.60
2019-04-03T23:26:08.587Z,5.60
2019-04-03T23:31:38.112Z,5.60
2019-04-03T23:37:07.950Z,5.50
2019-04-03T23:42:37.816Z,5.40
2019-04-03T23:48:07.979Z,5.40
2019-04-03T23:53:37.563Z,5.30
2019-04-03T23:59:08.197Z,5.30
